Time;durP1;ratioP1;P1;durP2;ratioP2;P2;SDS_P1;SDS_P2;PMS_P1;PMS_P2;Temp;Humidity;BMP_temperature;BMP_pressure;BME280_temperature;BME280_humidity;BME280_pressure;Samples;Min_cycle;Max_cycle;Signal;HPM_P1;HPM_P2
2022/04/29 00:02:10;;;;;;;8.73;5.27;;;;;;;;;;5094764;28;20187;-55
2022/04/29 00:04:37;;;;;;;9.50;4.90;;;;;;;;;;5092818;28;20325;-54
2022/04/29 00:07:03;;;;;;;10.40;4.67;;;;;;;;;;5094723;28;20194;-54
2022/04/29 00:09:29;;;;;;;7.63;5.17;;;;;;;;;;5094813;28;20542;-54
2022/04/29 00:11:55;;;;;;;9.53;5.30;;;;;;;;;;5094562;28;20693;-54
2022/04/29 00:14:23;;;;;;;9.43;5.17;;;;;;;;;;5094396;28;20243;-54
2022/04/29 00:16:49;;;;;;;12.87;5.40;;;;;;;;;;5094394;28;20776;-54
2022/04/29 00:19:16;;;;;;;7.17;4.87;;;;;;;;;;5094529;28;20195;-54
2022/04/29 00:21:42;;;;;;;8.80;5.60;;;;;;;;;;5094448;28;20191;-54
2022/04/29 00:24:09;;;;;;;9.70;5.27;;;;;;;;;;5094532;28;20223;-54
2022/04/29 00:26:37;;;;;;;12.57;5.20;;;;;;;;;;5094266;28;20225;-54
2022/04/29 00:29:03;;;;;;;11.90;5.67;;;;;;;;;;5093477;28;20291;-54
2022/04/29 00:31:30;;;;;;;10.50;5.53;;;;;;;;;;5094186;28;20238;-53
2022/04/29 00:33:56;;;;;;;8.07;5.27;;;;;;;;;;5094331;28;20947;-54
2022/04/29 00:36:22;;;;;;;9.00;5.40;;;;;;;;;;5094064;28;20433;-54
2022/04/29 00:38:48;;;;;;;15.63;5.90;;;;;;;;;;5094021;28;20663;-53
2022/04/29 00:41:16;;;;;;;10.17;5.70;;;;;;;;;;5093862;28;20942;-54
2022/04/29 00:43:42;;;;;;;12.67;5.97;;;;;;;;;;5093886;28;20191;-54
2022/04/29 00:46:08;;;;;;;7.73;5.20;;;;;;;;;;5093932;28;20954;-54
2022/04/29 00:48:36;;;;;;;9.50;5.73;;;;;;;;;;5093613;28;20588;-54
2022/04/29 00:51:02;;;;;;;8.83;5.77;;;;;;;;;;5093787;28;20198;-54
2022/04/29 00:53:29;;;;;;;8.70;5.60;;;;;;;;;;5093599;28;20740;-54
2022/04/29 00:55:55;;;;;;;9.37;5.27;;;;;;;;;;5093603;28;20490;-54
2022/04/29 00:58:24;;;;;;;10.43;6.23;;;;;;;;;;5093350;28;20876;-55
2022/04/29 01:00:54;;;;;;;5.93;5.17;;;;;;;;;;5093474;28;20452;-54
2022/04/29 01:03:20;;;;;;;11.07;6.40;;;;;;;;;;5093338;28;20443;-56
2022/04/29 01:05:49;;;;;;;8.83;5.47;;;;;;;;;;5093535;28;20439;-54
2022/04/29 01:08:15;;;;;;;10.90;6.10;;;;;;;;;;5093447;28;20453;-53
2022/04/29 01:10:41;;;;;;;8.93;5.60;;;;;;;;;;5093252;28;20434;-54
2022/04/29 01:13:09;;;;;;;10.83;5.93;;;;;;;;;;5093165;28;20471;-54
2022/04/29 01:15:35;;;;;;;12.13;6.17;;;;;;;;;;5092931;28;20477;-55
2022/04/29 01:18:03;;;;;;;8.17;5.73;;;;;;;;;;5093297;28;20481;-55
2022/04/29 01:20:29;;;;;;;7.43;5.70;;;;;;;;;;5092889;28;20451;-55
2022/04/29 01:22:57;;;;;;;13.00;6.23;;;;;;;;;;5093206;28;20440;-53
2022/04/29 01:25:23;;;;;;;15.20;6.43;;;;;;;;;;5092806;28;20653;-54
2022/04/29 01:27:50;;;;;;;13.27;6.90;;;;;;;;;;5092834;28;20808;-54
2022/04/29 01:30:16;;;;;;;10.03;6.10;;;;;;;;;;5092901;28;20440;-54
2022/04/29 01:32:42;;;;;;;15.13;6.40;;;;;;;;;;5092858;28;20477;-55
2022/04/29 01:35:12;;;;;;;10.10;5.83;;;;;;;;;;5092832;28;20957;-54
2022/04/29 01:37:39;;;;;;;9.93;6.20;;;;;;;;;;5092729;28;20878;-54
2022/04/29 01:40:07;;;;;;;9.27;5.67;;;;;;;;;;5092810;28;20494;-55
2022/04/29 01:42:33;;;;;;;8.47;6.47;;;;;;;;;;5092707;28;20205;-55
2022/04/29 01:44:59;;;;;;;6.43;4.90;;;;;;;;;;5092979;28;20457;-55
2022/04/29 01:47:25;;;;;;;13.23;6.03;;;;;;;;;;5092676;28;20456;-54
2022/04/29 01:49:51;;;;;;;6.93;5.80;;;;;;;;;;5092628;28;20429;-55
2022/04/29 01:52:17;;;;;;;9.73;6.10;;;;;;;;;;5092531;28;20534;-55
2022/04/29 01:54:43;;;;;;;10.23;5.83;;;;;;;;;;5092416;28;20449;-55
2022/04/29 01:57:11;;;;;;;10.30;6.03;;;;;;;;;;5092499;28;20194;-55
2022/04/29 01:59:37;;;;;;;12.70;6.37;;;;;;;;;;5092340;28;20207;-55
2022/04/29 02:02:03;;;;;;;9.57;5.80;;;;;;;;;;5092453;28;20440;-55
2022/04/29 02:04:29;;;;;;;11.33;5.93;;;;;;;;;;5092426;28;20545;-55
2022/04/29 02:06:55;;;;;;;9.07;6.27;;;;;;;;;;5092476;28;20437;-55
2022/04/29 02:09:22;;;;;;;8.87;6.07;;;;;;;;;;5092399;28;20759;-54
2022/04/29 02:12:06;;;;;;;12.90;6.10;;;;;;;;;;5090793;28;20477;-55
2022/04/29 02:14:34;;;;;;;11.57;5.70;;;;;;;;;;5091934;28;20833;-53
2022/04/29 02:17:02;;;;;;;8.13;5.60;;;;;;;;;;5092180;28;20441;-54
2022/04/29 02:19:28;;;;;;;12.87;6.90;;;;;;;;;;5091986;28;20429;-54
2022/04/29 02:21:55;;;;;;;7.10;5.53;;;;;;;;;;5091952;28;20430;-54
2022/04/29 02:24:21;;;;;;;6.63;5.53;;;;;;;;;;5091858;28;20461;-54
2022/04/29 02:26:47;;;;;;;8.67;5.83;;;;;;;;;;5091635;28;20448;-54
2022/04/29 02:29:13;;;;;;;8.73;5.93;;;;;;;;;;5091843;28;20183;-54
2022/04/29 02:31:40;;;;;;;8.47;6.07;;;;;;;;;;5091703;28;20218;-53
2022/04/29 02:34:06;;;;;;;7.80;6.10;;;;;;;;;;5091851;28;20445;-54
2022/04/29 02:36:32;;;;;;;9.50;6.23;;;;;;;;;;5091757;28;20437;-54
2022/04/29 02:38:59;;;;;;;9.57;6.53;;;;;;;;;;5091874;28;20527;-54
2022/04/29 02:41:25;;;;;;;6.67;5.90;;;;;;;;;;5091660;28;20440;-54
2022/04/29 02:43:51;;;;;;;9.00;6.07;;;;;;;;;;5091645;28;20429;-54
2022/04/29 02:46:17;;;;;;;6.03;5.43;;;;;;;;;;5091782;28;20465;-54
2022/04/29 02:48:47;;;;;;;11.90;6.10;;;;;;;;;;5092056;28;20510;-54
2022/04/29 02:51:13;;;;;;;11.00;6.40;;;;;;;;;;5091952;28;20510;-54
2022/04/29 02:53:39;;;;;;;9.13;5.73;;;;;;;;;;5095803;28;20445;-54
2022/04/29 02:56:05;;;;;;;12.70;5.97;;;;;;;;;;5096012;28;20437;-54
2022/04/29 02:58:31;;;;;;;11.80;6.00;;;;;;;;;;5096094;28;20198;-55
2022/04/29 03:00:57;;;;;;;11.47;6.77;;;;;;;;;;5095924;28;20282;-53
2022/04/29 03:03:23;;;;;;;11.10;6.57;;;;;;;;;;5095798;28;20194;-55
2022/04/29 03:05:50;;;;;;;10.27;5.97;;;;;;;;;;5095710;28;20451;-54
2022/04/29 03:08:16;;;;;;;13.00;6.83;;;;;;;;;;5095946;28;20449;-54
2022/04/29 03:10:42;;;;;;;13.10;7.40;;;;;;;;;;5095662;28;20448;-54
2022/04/29 03:13:08;;;;;;;11.80;6.60;;;;;;;;;;5095670;28;20234;-54
2022/04/29 03:15:35;;;;;;;11.43;7.17;;;;;;;;;;5095346;28;20231;-54
2022/04/29 03:18:21;;;;;;;12.83;6.70;;;;;;;;;;5095763;28;20199;-55
2022/04/29 03:20:49;;;;;;;13.80;7.53;;;;;;;;;;5095592;28;20438;-54
2022/04/29 03:23:16;;;;;;;11.23;6.53;;;;;;;;;;5095700;28;20470;-54
2022/04/29 03:25:42;;;;;;;11.20;6.70;;;;;;;;;;5095278;28;20457;-54
2022/04/29 03:28:09;;;;;;;11.43;6.20;;;;;;;;;;5095443;28;20437;-54
2022/04/29 03:30:35;;;;;;;12.10;6.57;;;;;;;;;;5095216;28;20531;-52
2022/04/29 03:33:02;;;;;;;9.97;6.30;;;;;;;;;;5095113;28;20468;-54
2022/04/29 03:35:28;;;;;;;13.80;6.63;;;;;;;;;;5095291;28;20440;-54
2022/04/29 03:37:55;;;;;;;13.63;6.57;;;;;;;;;;5095264;28;20485;-53
2022/04/29 03:40:23;;;;;;;9.07;6.60;;;;;;;;;;5095340;28;20483;-54
2022/04/29 03:42:49;;;;;;;8.77;6.33;;;;;;;;;;5094895;28;21018;-53
2022/04/29 03:45:15;;;;;;;7.83;5.90;;;;;;;;;;5095092;28;20424;-54
2022/04/29 03:47:41;;;;;;;8.43;6.77;;;;;;;;;;5094902;28;20524;-54
2022/04/29 03:50:07;;;;;;;9.03;6.87;;;;;;;;;;5094990;28;20341;-54
2022/04/29 03:52:33;;;;;;;10.63;6.57;;;;;;;;;;5094811;28;20276;-54
2022/04/29 03:55:00;;;;;;;9.73;6.53;;;;;;;;;;5094913;28;21000;-53
2022/04/29 03:57:28;;;;;;;11.97;6.80;;;;;;;;;;5094745;28;20463;-54
2022/04/29 03:59:56;;;;;;;9.50;6.67;;;;;;;;;;5094949;28;20487;-53
2022/04/29 04:02:22;;;;;;;7.70;6.90;;;;;;;;;;5094728;28;20441;-54
2022/04/29 04:04:48;;;;;;;7.00;6.30;;;;;;;;;;5093307;28;20517;-54
2022/04/29 04:07:14;;;;;;;8.50;6.50;;;;;;;;;;5094645;28;20282;-54
2022/04/29 04:09:40;;;;;;;9.80;6.83;;;;;;;;;;5092989;28;20472;-54
2022/04/29 04:12:07;;;;;;;10.83;6.80;;;;;;;;;;5094234;28;20223;-52
2022/04/29 04:14:34;;;;;;;7.37;6.27;;;;;;;;;;5094166;28;20609;-54
2022/04/29 04:17:00;;;;;;;8.30;6.57;;;;;;;;;;5094765;28;20506;-55
2022/04/29 04:19:26;;;;;;;11.83;6.40;;;;;;;;;;5094205;28;20440;-53
2022/04/29 04:21:52;;;;;;;8.67;6.57;;;;;;;;;;5094422;28;20195;-53
2022/04/29 04:24:18;;;;;;;12.47;6.87;;;;;;;;;;5092677;28;20219;-54
2022/04/29 04:26:44;;;;;;;14.40;7.60;;;;;;;;;;5094129;28;20206;-55
2022/04/29 04:29:10;;;;;;;11.47;6.93;;;;;;;;;;5094226;28;20278;-54
2022/04/29 04:31:37;;;;;;;10.03;7.03;;;;;;;;;;5093858;28;20258;-53
2022/04/29 04:34:49;;;;;;;8.70;6.43;;;;;;;;;;5094108;28;20282;-52
2022/04/29 04:36:52;;;;;;;10.50;7.00;;;;;;;;;;5093710;28;20750;-55
2022/04/29 04:39:19;;;;;;;10.97;6.63;;;;;;;;;;5093834;28;20474;-53
2022/04/29 04:41:44;;;;;;;7.07;6.37;;;;;;;;;;5093912;28;20425;-53
2022/04/29 04:44:10;;;;;;;10.10;7.00;;;;;;;;;;5093932;28;20491;-54
2022/04/29 04:46:38;;;;;;;10.53;7.10;;;;;;;;;;5093752;28;20222;-54
2022/04/29 04:49:04;;;;;;;8.13;6.63;;;;;;;;;;5093878;28;20211;-54
2022/04/29 04:51:30;;;;;;;16.80;7.53;;;;;;;;;;5093758;28;20441;-54
2022/04/29 04:53:56;;;;;;;11.23;7.53;;;;;;;;;;5093796;28;20195;-53
2022/04/29 04:56:22;;;;;;;10.17;6.77;;;;;;;;;;5093720;28;20485;-53
2022/04/29 04:58:48;;;;;;;13.43;8.20;;;;;;;;;;5093544;28;20199;-53
2022/04/29 05:01:13;;;;;;;13.07;7.47;;;;;;;;;;5093724;28;20766;-54
2022/04/29 05:03:43;;;;;;;10.73;7.23;;;;;;;;;;5093396;28;20213;-54
2022/04/29 05:06:09;;;;;;;12.30;7.57;;;;;;;;;;5093137;28;20736;-53
2022/04/29 05:08:35;;;;;;;13.23;8.30;;;;;;;;;;5093097;28;20537;-55
2022/04/29 05:11:01;;;;;;;15.33;9.10;;;;;;;;;;5093333;28;20195;-54
2022/04/29 05:13:27;;;;;;;14.97;8.07;;;;;;;;;;5093217;28;21017;-54
2022/04/29 05:15:53;;;;;;;14.43;8.63;;;;;;;;;;5092716;28;20463;-54
2022/04/29 05:18:19;;;;;;;10.73;7.93;;;;;;;;;;5092965;28;20474;-54
2022/04/29 05:20:46;;;;;;;10.33;7.67;;;;;;;;;;5093159;28;20199;-53
2022/04/29 05:23:12;;;;;;;15.27;8.73;;;;;;;;;;5093184;28;20445;-56
2022/04/29 05:25:38;;;;;;;11.73;7.40;;;;;;;;;;5092954;28;20965;-55
2022/04/29 05:28:04;;;;;;;13.03;7.57;;;;;;;;;;5092986;28;20433;-54
2022/04/29 05:30:31;;;;;;;13.63;7.10;;;;;;;;;;5092868;28;20199;-53
2022/04/29 05:32:57;;;;;;;8.07;7.13;;;;;;;;;;5092805;28;20477;-53
2022/04/29 05:35:24;;;;;;;8.87;7.17;;;;;;;;;;5092918;28;20445;-53
2022/04/29 05:37:51;;;;;;;15.47;8.33;;;;;;;;;;5092461;28;20433;-54
2022/04/29 05:43:02;;;;;;;11.70;7.87;;;;;;;;;;5093090;28;20479;-54
2022/04/29 05:45:28;;;;;;;12.23;7.60;;;;;;;;;;5092811;28;20503;-54
2022/04/29 05:47:54;;;;;;;12.13;7.70;;;;;;;;;;5092762;28;20437;-54
2022/04/29 05:50:20;;;;;;;13.93;8.37;;;;;;;;;;5092658;28;20447;-54
2022/04/29 05:52:47;;;;;;;12.23;7.43;;;;;;;;;;5092676;28;20765;-54
2022/04/29 05:55:15;;;;;;;12.37;8.00;;;;;;;;;;5092617;28;20199;-54
2022/04/29 05:57:41;;;;;;;12.47;8.67;;;;;;;;;;5092492;28;20440;-54
2022/04/29 06:00:07;;;;;;;13.70;9.57;;;;;;;;;;5092587;28;20436;-54
2022/04/29 06:02:35;;;;;;;15.77;9.27;;;;;;;;;;5092447;28;20234;-54
2022/04/29 06:05:02;;;;;;;15.40;9.13;;;;;;;;;;5092534;28;20489;-54
2022/04/29 06:07:27;;;;;;;17.57;9.73;;;;;;;;;;5092261;28;20229;-54
2022/04/29 06:09:53;;;;;;;15.50;9.33;;;;;;;;;;5092380;28;20223;-55
2022/04/29 06:12:21;;;;;;;12.33;8.53;;;;;;;;;;5091743;28;20698;-54
2022/04/29 06:14:47;;;;;;;16.07;8.60;;;;;;;;;;5091927;28;20340;-54
2022/04/29 06:17:13;;;;;;;12.47;8.27;;;;;;;;;;5092327;28;20199;-54
2022/04/29 06:19:39;;;;;;;14.20;9.30;;;;;;;;;;5092045;28;20203;-54
2022/04/29 06:22:05;;;;;;;13.47;8.67;;;;;;;;;;5091704;28;20290;-54
2022/04/29 06:24:31;;;;;;;14.23;8.87;;;;;;;;;;5091742;28;20215;-55
2022/04/29 06:26:57;;;;;;;15.87;8.83;;;;;;;;;;5091153;28;20259;-54
2022/04/29 06:29:25;;;;;;;13.10;8.80;;;;;;;;;;5091666;28;20191;-55
2022/04/29 06:31:51;;;;;;;12.30;8.90;;;;;;;;;;5091614;28;20220;-55
2022/04/29 06:34:17;;;;;;;12.50;8.13;;;;;;;;;;5091919;28;20199;-54
2022/04/29 06:36:43;;;;;;;12.00;8.70;;;;;;;;;;5092025;28;20202;-54
2022/04/29 06:39:09;;;;;;;11.50;8.30;;;;;;;;;;5091729;28;20213;-55
2022/04/29 06:41:38;;;;;;;15.30;8.90;;;;;;;;;;5091686;28;20199;-55
2022/04/29 06:44:04;;;;;;;16.43;8.47;;;;;;;;;;5091803;28;20273;-55
2022/04/29 06:46:31;;;;;;;14.40;8.43;;;;;;;;;;5091888;28;20589;-55
2022/04/29 06:48:58;;;;;;;11.43;8.57;;;;;;;;;;5091737;28;20210;-55
2022/04/29 06:51:25;;;;;;;13.10;8.10;;;;;;;;;;5091801;28;20244;-56
2022/04/29 06:53:51;;;;;;;9.90;7.53;;;;;;;;;;5091856;28;20226;-56
2022/04/29 06:56:17;;;;;;;9.97;7.90;;;;;;;;;;5092011;28;20199;-54
2022/04/29 06:58:43;;;;;;;12.73;7.80;;;;;;;;;;5091666;28;20695;-54
2022/04/29 07:01:09;;;;;;;13.40;8.37;;;;;;;;;;5091693;28;20229;-55
2022/04/29 07:03:39;;;;;;;10.83;8.13;;;;;;;;;;5091501;28;20186;-55
2022/04/29 07:06:06;;;;;;;13.80;8.33;;;;;;;;;;5091663;28;20575;-55
2022/04/29 07:08:32;;;;;;;12.00;8.60;;;;;;;;;;5091413;28;20726;-54
2022/04/29 07:10:58;;;;;;;14.33;8.00;;;;;;;;;;5091622;28;20190;-54
2022/04/29 07:13:24;;;;;;;14.17;8.30;;;;;;;;;;5091307;28;20317;-54
2022/04/29 07:15:50;;;;;;;11.83;8.40;;;;;;;;;;5091043;28;20235;-55
2022/04/29 07:18:17;;;;;;;14.80;7.90;;;;;;;;;;5091470;28;20589;-55
2022/04/29 07:20:46;;;;;;;11.07;7.93;;;;;;;;;;5091136;28;20293;-54
2022/04/29 07:23:12;;;;;;;11.33;7.17;;;;;;;;;;5091521;28;20218;-55
2022/04/29 07:25:38;;;;;;;11.50;7.40;;;;;;;;;;5091102;28;20693;-55
2022/04/29 07:28:05;;;;;;;10.10;7.00;;;;;;;;;;5091468;28;20195;-55
2022/04/29 07:30:31;;;;;;;9.90;6.83;;;;;;;;;;5091566;28;20218;-55
2022/04/29 07:32:56;;;;;;;9.53;6.90;;;;;;;;;;5091513;28;20250;-55
2022/04/29 07:43:37;;;;;;;11.73;6.83;;;;;;;;;;5094933;28;20581;-55
2022/04/29 07:46:03;;;;;;;8.60;7.33;;;;;;;;;;5095006;28;20199;-55
2022/04/29 07:48:30;;;;;;;8.83;7.17;;;;;;;;;;5095084;28;20199;-55
2022/04/29 07:50:56;;;;;;;12.17;7.03;;;;;;;;;;5094986;28;20218;-55
2022/04/29 07:53:23;;;;;;;10.40;7.10;;;;;;;;;;5094723;28;20728;-55
2022/04/29 07:55:49;;;;;;;10.77;7.60;;;;;;;;;;5094783;28;20195;-56
2022/04/29 07:58:15;;;;;;;9.77;6.53;;;;;;;;;;5095090;28;20244;-54
2022/04/29 08:00:43;;;;;;;13.00;7.30;;;;;;;;;;5094758;28;20669;-56
2022/04/29 08:03:09;;;;;;;14.63;7.67;;;;;;;;;;5094830;28;20203;-54
2022/04/29 08:05:35;;;;;;;10.87;6.40;;;;;;;;;;5094557;28;20628;-54
2022/04/29 08:08:01;;;;;;;10.20;6.70;;;;;;;;;;5094479;28;20603;-54
2022/04/29 08:10:32;;;;;;;12.20;6.70;;;;;;;;;;5094457;28;20256;-54
2022/04/29 08:12:58;;;;;;;7.57;5.90;;;;;;;;;;5094533;28;20280;-55
2022/04/29 08:15:25;;;;;;;12.57;6.37;;;;;;;;;;5094135;28;20702;-54
2022/04/29 08:17:51;;;;;;;11.50;5.13;;;;;;;;;;5094092;28;20640;-53
2022/04/29 08:20:17;;;;;;;7.87;5.30;;;;;;;;;;5094162;28;20675;-54
2022/04/29 08:22:43;;;;;;;7.30;5.50;;;;;;;;;;5094494;28;20199;-54
2022/04/29 08:25:09;;;;;;;13.63;6.57;;;;;;;;;;5094205;28;20218;-55
2022/04/29 08:27:36;;;;;;;7.83;5.60;;;;;;;;;;5094111;28;20201;-56
2022/04/29 08:30:03;;;;;;;7.63;5.13;;;;;;;;;;5094236;28;20203;-54
2022/04/29 08:32:28;;;;;;;9.73;5.67;;;;;;;;;;5094179;28;20224;-54
2022/04/29 08:34:54;;;;;;;9.70;5.40;;;;;;;;;;5093875;28;20199;-55
2022/04/29 08:37:21;;;;;;;6.57;4.53;;;;;;;;;;5093670;28;20274;-55
2022/04/29 08:39:47;;;;;;;8.40;5.10;;;;;;;;;;5093710;28;20200;-55
2022/04/29 08:42:14;;;;;;;10.17;5.37;;;;;;;;;;5093848;28;20558;-55
2022/04/29 08:44:42;;;;;;;9.23;5.03;;;;;;;;;;5093694;28;20283;-55
2022/04/29 08:47:08;;;;;;;6.80;5.17;;;;;;;;;;5093641;28;20202;-56
2022/04/29 08:49:36;;;;;;;7.83;4.47;;;;;;;;;;5092807;28;20577;-55
2022/04/29 08:52:02;;;;;;;7.20;5.00;;;;;;;;;;5093540;28;20203;-55
2022/04/29 09:00:00;;;;;;;8.13;5.27;;;;;;;;;;5093360;28;20198;-55
2022/04/29 09:02:26;;;;;;;9.27;5.27;;;;;;;;;;5093165;28;20270;-55
2022/04/29 09:04:58;;;;;;;9.00;4.80;;;;;;;;;;5093274;28;20260;-55
2022/04/29 09:07:39;;;;;;;6.97;4.37;;;;;;;;;;5093129;28;20282;-54
2022/04/29 09:10:05;;;;;;;6.53;4.30;;;;;;;;;;5092975;28;20198;-55
2022/04/29 09:12:31;;;;;;;7.47;4.60;;;;;;;;;;5093238;28;20225;-56
2022/04/29 09:15:10;;;;;;;9.93;3.87;;;;;;;;;;5093135;28;20287;-54
2022/04/29 09:17:39;;;;;;;7.87;4.63;;;;;;;;;;5093160;28;20610;-55
2022/04/29 09:20:12;;;;;;;6.80;4.40;;;;;;;;;;5093000;28;20199;-56
2022/04/29 09:22:41;;;;;;;8.70;4.20;;;;;;;;;;5092913;28;20198;-56
2022/04/29 09:25:08;;;;;;;8.60;4.50;;;;;;;;;;5092882;28;20272;-56
2022/04/29 09:27:52;;;;;;;7.60;4.40;;;;;;;;;;5092882;28;20199;-56
2022/04/29 09:30:31;;;;;;;7.77;4.40;;;;;;;;;;5092890;28;20199;-56
2022/04/29 09:32:57;;;;;;;5.83;4.20;;;;;;;;;;5092741;28;20222;-56
2022/04/29 09:35:34;;;;;;;7.37;4.43;;;;;;;;;;5093008;28;20736;-55
2022/04/29 09:40:47;;;;;;;11.07;4.10;;;;;;;;;;5092646;28;20193;-55
2022/04/29 09:43:13;;;;;;;7.07;4.20;;;;;;;;;;5092534;28;20191;-55
2022/04/29 09:45:40;;;;;;;9.40;4.83;;;;;;;;;;5092419;28;20203;-55
2022/04/29 09:48:09;;;;;;;9.40;5.40;;;;;;;;;;5092693;28;20203;-55
2022/04/29 09:50:44;;;;;;;9.07;4.60;;;;;;;;;;5092426;28;20252;-55
2022/04/29 09:53:16;;;;;;;6.07;4.90;;;;;;;;;;5092784;28;20308;-55
2022/04/29 09:55:42;;;;;;;8.33;5.20;;;;;;;;;;5092478;28;20213;-55
2022/04/29 09:58:09;;;;;;;7.67;5.07;;;;;;;;;;5092456;28;20281;-55
2022/04/29 10:00:36;;;;;;;9.97;5.07;;;;;;;;;;5092542;28;20256;-55
2022/04/29 10:03:04;;;;;;;8.23;4.67;;;;;;;;;;5092242;28;20195;-55
2022/04/29 10:05:30;;;;;;;6.40;4.33;;;;;;;;;;5092181;28;20734;-55
2022/04/29 10:07:57;;;;;;;7.77;4.67;;;;;;;;;;5092189;28;20191;-55
2022/04/29 10:10:24;;;;;;;6.57;4.83;;;;;;;;;;5092279;28;20272;-56
2022/04/29 10:12:51;;;;;;;7.37;4.67;;;;;;;;;;5092266;28;20234;-56
2022/04/29 10:15:18;;;;;;;7.37;4.90;;;;;;;;;;5092106;28;20234;-55
2022/04/29 10:23:17;;;;;;;6.83;4.10;;;;;;;;;;5092140;28;20201;-55
2022/04/29 10:25:44;;;;;;;7.40;4.77;;;;;;;;;;5091930;28;20235;-54
2022/04/29 10:28:11;;;;;;;7.70;4.87;;;;;;;;;;5091942;28;20195;-54
2022/04/29 10:30:38;;;;;;;6.00;3.93;;;;;;;;;;5091732;28;20194;-54
2022/04/29 10:33:06;;;;;;;6.00;4.00;;;;;;;;;;5091812;28;20234;-54
2022/04/29 10:35:53;;;;;;;11.43;4.70;;;;;;;;;;5092012;28;20274;-54
2022/04/29 10:38:22;;;;;;;10.00;3.90;;;;;;;;;;5091500;28;20256;-56
2022/04/29 10:41:08;;;;;;;11.53;3.90;;;;;;;;;;5091898;28;20249;-55
2022/04/29 10:43:36;;;;;;;6.73;3.70;;;;;;;;;;5091865;28;20199;-56
2022/04/29 10:46:20;;;;;;;5.63;3.20;;;;;;;;;;5091875;28;20196;-56
2022/04/29 10:48:46;;;;;;;7.83;3.60;;;;;;;;;;5091861;28;20202;-56
2022/04/29 10:51:16;;;;;;;7.83;3.90;;;;;;;;;;5091847;28;20275;-56
2022/04/29 10:53:43;;;;;;;7.40;4.03;;;;;;;;;;5091430;28;20256;-56
2022/04/29 10:56:31;;;;;;;5.13;3.87;;;;;;;;;;5091698;28;20208;-55
2022/04/29 10:58:59;;;;;;;5.30;3.03;;;;;;;;;;5091641;28;20220;-56
2022/04/29 11:01:27;;;;;;;6.20;3.33;;;;;;;;;;5091793;28;20197;-55
2022/04/29 11:03:53;;;;;;;7.40;3.30;;;;;;;;;;5091439;28;20195;-55
2022/04/29 11:06:20;;;;;;;5.00;3.20;;;;;;;;;;5091375;28;20585;-56
2022/04/29 11:08:47;;;;;;;5.87;3.43;;;;;;;;;;5091510;28;20206;-56
2022/04/29 11:11:13;;;;;;;6.47;2.77;;;;;;;;;;5091831;28;20235;-55
2022/04/29 11:13:47;;;;;;;5.70;2.93;;;;;;;;;;5093533;28;20463;-55
2022/04/29 11:16:13;;;;;;;4.83;3.27;;;;;;;;;;5095620;28;20286;-56
2022/04/29 11:18:41;;;;;;;4.40;3.00;;;;;;;;;;5095641;28;20200;-56
2022/04/29 11:26:42;;;;;;;5.40;3.37;;;;;;;;;;5095060;28;20200;-55
2022/04/29 11:29:10;;;;;;;6.83;3.80;;;;;;;;;;5094742;28;20211;-56
2022/04/29 11:31:36;;;;;;;8.07;4.20;;;;;;;;;;5094954;28;20200;-55
2022/04/29 11:34:05;;;;;;;5.67;3.80;;;;;;;;;;5095020;28;20227;-56
2022/04/29 11:36:31;;;;;;;6.90;3.20;;;;;;;;;;5095028;28;20199;-54
2022/04/29 11:38:58;;;;;;;5.83;3.87;;;;;;;;;;5094798;28;20206;-55
2022/04/29 11:41:27;;;;;;;5.37;3.17;;;;;;;;;;5094949;28;20290;-55
2022/04/29 11:43:53;;;;;;;5.40;2.70;;;;;;;;;;5094717;28;20705;-55
2022/04/29 11:46:20;;;;;;;8.87;3.13;;;;;;;;;;5094634;28;20677;-56
2022/04/29 11:48:50;;;;;;;4.87;2.60;;;;;;;;;;5094635;28;20562;-56
2022/04/29 11:51:16;;;;;;;2.40;2.20;;;;;;;;;;5094778;28;20750;-55
2022/04/29 11:53:52;;;;;;;4.43;2.23;;;;;;;;;;5094574;28;20385;-55
2022/04/29 11:56:19;;;;;;;3.20;2.60;;;;;;;;;;5094661;28;20557;-56
2022/04/29 11:58:45;;;;;;;6.67;2.70;;;;;;;;;;5094510;28;20744;-54
2022/04/29 12:01:12;;;;;;;7.33;2.77;;;;;;;;;;5094652;28;20207;-54
2022/04/29 12:03:46;;;;;;;7.07;2.90;;;;;;;;;;5094410;28;20630;-56
2022/04/29 12:06:12;;;;;;;4.30;2.50;;;;;;;;;;5094722;28;20195;-55
2022/04/29 12:08:39;;;;;;;6.03;2.90;;;;;;;;;;5094305;28;20265;-55
2022/04/29 12:11:04;;;;;;;5.47;3.07;;;;;;;;;;5094484;28;20195;-56
2022/04/29 12:13:32;;;;;;;5.23;2.77;;;;;;;;;;5094440;28;20227;-56
2022/04/29 12:15:58;;;;;;;4.77;2.63;;;;;;;;;;5094194;28;20783;-55
2022/04/29 12:18:37;;;;;;;5.63;3.33;;;;;;;;;;5094116;28;20194;-55
2022/04/29 12:21:04;;;;;;;3.93;3.07;;;;;;;;;;5094116;28;20253;-55
2022/04/29 12:23:33;;;;;;;5.93;3.30;;;;;;;;;;5093966;28;20201;-56
2022/04/29 12:26:01;;;;;;;5.53;3.33;;;;;;;;;;5093161;28;20205;-55
2022/04/29 12:28:28;;;;;;;6.77;3.40;;;;;;;;;;5094378;28;20275;-56
2022/04/29 12:36:30;;;;;;;7.10;3.33;;;;;;;;;;5094212;28;20190;-54
2022/04/29 12:39:03;;;;;;;6.77;3.27;;;;;;;;;;5093734;28;20666;-55
2022/04/29 12:41:29;;;;;;;8.00;3.20;;;;;;;;;;5094230;28;20396;-55
2022/04/29 12:44:06;;;;;;;3.60;2.67;;;;;;;;;;5094134;28;20198;-55
2022/04/29 12:46:34;;;;;;;7.23;3.10;;;;;;;;;;5094071;28;20200;-54
2022/04/29 12:49:00;;;;;;;3.63;2.73;;;;;;;;;;5094098;28;20199;-57
2022/04/29 12:51:28;;;;;;;5.17;2.83;;;;;;;;;;5094078;28;20194;-55
2022/04/29 12:53:55;;;;;;;3.47;2.83;;;;;;;;;;5093646;28;20227;-59
2022/04/29 12:56:24;;;;;;;5.00;3.30;;;;;;;;;;5093956;28;20205;-55
2022/04/29 12:58:50;;;;;;;4.37;3.30;;;;;;;;;;5093841;28;20210;-56
2022/04/29 13:01:16;;;;;;;4.10;2.90;;;;;;;;;;5093929;28;20273;-54
2022/04/29 13:03:50;;;;;;;6.40;3.17;;;;;;;;;;5093802;28;20269;-55
2022/04/29 13:06:17;;;;;;;6.43;3.30;;;;;;;;;;5093796;28;20203;-55
2022/04/29 13:08:44;;;;;;;3.60;3.23;;;;;;;;;;5093500;28;20661;-55
2022/04/29 13:11:14;;;;;;;4.17;2.90;;;;;;;;;;5093632;28;20555;-56
2022/04/29 13:13:40;;;;;;;5.70;3.03;;;;;;;;;;5093504;28;20230;-56
2022/04/29 13:16:06;;;;;;;4.53;3.00;;;;;;;;;;5093214;28;20276;-55
2022/04/29 13:18:32;;;;;;;4.77;3.40;;;;;;;;;;5093556;28;20195;-55
2022/04/29 13:21:00;;;;;;;9.23;3.53;;;;;;;;;;5093320;28;20234;-55
2022/04/29 13:23:27;;;;;;;3.67;2.93;;;;;;;;;;5093269;28;20199;-55
2022/04/29 13:25:56;;;;;;;5.50;3.27;;;;;;;;;;5093166;28;20444;-56
2022/04/29 13:28:22;;;;;;;3.97;2.87;;;;;;;;;;5093342;28;20549;-55
2022/04/29 13:30:48;;;;;;;4.90;2.97;;;;;;;;;;5093201;28;20199;-55
2022/04/29 13:33:14;;;;;;;6.27;3.90;;;;;;;;;;5093274;28;20222;-54
2022/04/29 13:35:40;;;;;;;7.47;3.63;;;;;;;;;;5092848;28;20622;-55
2022/04/29 13:38:09;;;;;;;7.10;4.30;;;;;;;;;;5092999;28;20241;-55
2022/04/29 13:40:35;;;;;;;7.10;4.10;;;;;;;;;;5093056;28;20593;-56
2022/04/29 13:43:01;;;;;;;4.57;3.33;;;;;;;;;;5092929;28;20199;-56
2022/04/29 13:45:28;;;;;;;4.43;3.00;;;;;;;;;;5093073;28;20206;-55
2022/04/29 13:47:54;;;;;;;4.10;3.50;;;;;;;;;;5092707;28;20630;-56
2022/04/29 13:50:20;;;;;;;6.30;3.40;;;;;;;;;;5092673;28;20203;-55
2022/04/29 13:55:32;;;;;;;6.63;3.60;;;;;;;;;;5092774;28;20236;-56
2022/04/29 13:57:58;;;;;;;7.47;3.60;;;;;;;;;;5092710;28;20662;-55
2022/04/29 14:00:24;;;;;;;5.23;3.47;;;;;;;;;;5092728;28;20195;-55
2022/04/29 14:02:50;;;;;;;7.10;3.40;;;;;;;;;;5092144;28;20251;-55
2022/04/29 14:05:16;;;;;;;6.33;3.93;;;;;;;;;;5092673;28;20199;-55
2022/04/29 14:07:43;;;;;;;5.83;3.50;;;;;;;;;;5092190;28;20203;-55
2022/04/29 14:10:09;;;;;;;10.47;4.27;;;;;;;;;;5091975;28;20653;-55
2022/04/29 14:12:38;;;;;;;5.87;3.80;;;;;;;;;;5091851;28;20593;-55
2022/04/29 14:15:04;;;;;;;6.13;3.30;;;;;;;;;;5091833;28;20321;-55
2022/04/29 14:17:31;;;;;;;4.07;3.20;;;;;;;;;;5092014;28;20207;-55
2022/04/29 14:19:57;;;;;;;6.07;4.23;;;;;;;;;;5091783;28;20203;-55
2022/04/29 14:22:23;;;;;;;5.40;3.27;;;;;;;;;;5091867;28;20209;-55
2022/04/29 14:24:49;;;;;;;8.10;3.60;;;;;;;;;;5091789;28;20301;-55
2022/04/29 14:27:15;;;;;;;6.47;3.50;;;;;;;;;;5092109;28;20195;-55
2022/04/29 14:29:42;;;;;;;6.67;3.73;;;;;;;;;;5091891;28;20188;-56
2022/04/29 14:32:13;;;;;;;5.93;3.57;;;;;;;;;;5091955;28;20210;-55
2022/04/29 14:34:39;;;;;;;8.90;3.70;;;;;;;;;;5091685;28;20226;-54
2022/04/29 14:37:06;;;;;;;5.50;3.40;;;;;;;;;;5091660;28;20199;-56
2022/04/29 14:39:32;;;;;;;4.33;3.37;;;;;;;;;;5091651;28;20221;-55
2022/04/29 14:41:58;;;;;;;8.07;3.67;;;;;;;;;;5091824;28;20192;-55
2022/04/29 14:44:24;;;;;;;8.33;3.43;;;;;;;;;;5091804;28;20208;-56
2022/04/29 14:46:52;;;;;;;5.37;3.23;;;;;;;;;;5091215;28;20214;-56
2022/04/29 14:49:18;;;;;;;5.63;3.60;;;;;;;;;;5091053;28;20208;-56
2022/04/29 14:51:45;;;;;;;7.23;3.33;;;;;;;;;;5091344;28;20711;-56
2022/04/29 14:54:12;;;;;;;5.53;3.67;;;;;;;;;;5091715;28;20308;-55
2022/04/29 14:56:38;;;;;;;5.50;3.30;;;;;;;;;;5091729;28;20564;-55
2022/04/29 14:59:04;;;;;;;4.83;3.27;;;;;;;;;;5091694;28;20200;-55
2022/04/29 15:01:31;;;;;;;6.33;3.70;;;;;;;;;;5091871;28;20266;-56
2022/04/29 15:03:58;;;;;;;6.47;3.43;;;;;;;;;;5091472;28;20236;-56
2022/04/29 15:06:24;;;;;;;6.93;3.53;;;;;;;;;;5091646;28;20203;-55
2022/04/29 15:15:34;;;;;;;6.40;3.20;;;;;;;;;;5091387;28;20627;-55
2022/04/29 15:17:15;;;;;;;6.70;3.40;;;;;;;;;;5091454;28;20190;-57
2022/04/29 15:19:42;;;;;;;3.87;2.97;;;;;;;;;;5091559;28;20193;-56
2022/04/29 15:22:09;;;;;;;5.77;3.40;;;;;;;;;;5091454;28;20203;-56
2022/04/29 15:24:35;;;;;;;4.37;3.37;;;;;;;;;;5091312;28;20731;-55